sensor_id;sensor_type;location;lat;lon;timestamp;pressure;altitude;pressure_sealevel;temperature;humidity
77081;BME280;66009;53.150;18.160;2023-04-03T00:00:40;102371.02;;;-0.67;73.01
77081;BME280;66009;53.150;18.160;2023-04-03T00:03:17;102370.09;;;-0.68;73.31
77081;BME280;66009;53.150;18.160;2023-04-03T00:05:44;102369.16;;;-0.69;73.59
77081;BME280;66009;53.150;18.160;2023-04-03T00:08:10;102368.54;;;-0.71;73.33
77081;BME280;66009;53.150;18.160;2023-04-03T00:10:37;102367.90;;;-0.73;73.44
77081;BME280;66009;53.150;18.160;2023-04-03T00:13:05;102367.96;;;-0.75;73.59
77081;BME280;66009;53.150;18.160;2023-04-03T00:15:33;102369.14;;;-0.79;73.39
77081;BME280;66009;53.150;18.160;2023-04-03T00:18:00;102370.94;;;-0.83;73.75
77081;BME280;66009;53.150;18.160;2023-04-03T00:20:27;102367.07;;;-0.87;74.06
77081;BME280;66009;53.150;18.160;2023-04-03T00:22:54;102366.70;;;-0.90;73.72
77081;BME280;66009;53.150;18.160;2023-04-03T00:25:21;102365.07;;;-0.95;73.79
77081;BME280;66009;53.150;18.160;2023-04-03T00:27:48;102364.80;;;-0.99;73.92
77081;BME280;66009;53.150;18.160;2023-04-03T00:30:17;102367.12;;;-1.01;74.09
77081;BME280;66009;53.150;18.160;2023-04-03T00:32:44;102366.14;;;-0.94;74.01
77081;BME280;66009;53.150;18.160;2023-04-03T00:35:11;102368.79;;;-0.93;73.66
77081;BME280;66009;53.150;18.160;2023-04-03T00:37:38;102366.20;;;-0.93;73.98
77081;BME280;66009;53.150;18.160;2023-04-03T00:40:05;102367.38;;;-0.90;73.97
77081;BME280;66009;53.150;18.160;2023-04-03T00:42:32;102368.38;;;-0.88;73.82
77081;BME280;66009;53.150;18.160;2023-04-03T00:47:27;102371.94;;;-0.84;73.69
77081;BME280;66009;53.150;18.160;2023-04-03T00:49:55;102368.77;;;-0.87;73.78
77081;BME280;66009;53.150;18.160;2023-04-03T00:52:25;102368.29;;;-0.90;73.76
77081;BME280;66009;53.150;18.160;2023-04-03T00:54:54;102366.70;;;-0.93;74.00
77081;BME280;66009;53.150;18.160;2023-04-03T00:57:23;102365.87;;;-0.96;73.98
77081;BME280;66009;53.150;18.160;2023-04-03T00:59:55;102369.36;;;-0.98;74.20
77081;BME280;66009;53.150;18.160;2023-04-03T01:02:23;102367.81;;;-1.01;74.49
77081;BME280;66009;53.150;18.160;2023-04-03T01:04:51;102367.75;;;-1.02;74.52
77081;BME280;66009;53.150;18.160;2023-04-03T01:07:28;102367.14;;;-1.04;74.55
77081;BME280;66009;53.150;18.160;2023-04-03T01:09:57;102371.80;;;-1.06;74.33
77081;BME280;66009;53.150;18.160;2023-04-03T01:12:29;102371.34;;;-1.09;74.60
77081;BME280;66009;53.150;18.160;2023-04-03T01:14:58;102373.24;;;-1.11;74.48
77081;BME280;66009;53.150;18.160;2023-04-03T01:22:56;102372.64;;;-1.10;74.33
77081;BME280;66009;53.150;18.160;2023-04-03T01:25:25;102374.00;;;-1.10;74.43
77081;BME280;66009;53.150;18.160;2023-04-03T01:27:52;102373.66;;;-1.10;74.49
77081;BME280;66009;53.150;18.160;2023-04-03T01:30:20;102380.83;;;-1.08;74.59
77081;BME280;66009;53.150;18.160;2023-04-03T01:32:47;102381.36;;;-1.08;74.66
77081;BME280;66009;53.150;18.160;2023-04-03T01:35:13;102383.02;;;-1.09;74.62
77081;BME280;66009;53.150;18.160;2023-04-03T01:37:40;102386.23;;;-1.10;75.03
77081;BME280;66009;53.150;18.160;2023-04-03T01:40:08;102388.66;;;-1.13;74.82
77081;BME280;66009;53.150;18.160;2023-04-03T01:42:35;102387.19;;;-1.17;74.74
77081;BME280;66009;53.150;18.160;2023-04-03T01:45:01;102390.39;;;-1.21;74.90
77081;BME280;66009;53.150;18.160;2023-04-03T01:47:28;102390.31;;;-1.28;74.82
77081;BME280;66009;53.150;18.160;2023-04-03T01:49:55;102393.66;;;-1.36;74.87
77081;BME280;66009;53.150;18.160;2023-04-03T01:52:22;102394.54;;;-1.44;74.97
77081;BME280;66009;53.150;18.160;2023-04-03T01:54:48;102398.84;;;-1.53;75.06
77081;BME280;66009;53.150;18.160;2023-04-03T01:57:15;102397.85;;;-1.60;75.43
77081;BME280;66009;53.150;18.160;2023-04-03T01:59:42;102398.45;;;-1.65;75.42
77081;BME280;66009;53.150;18.160;2023-04-03T02:02:09;102398.94;;;-1.63;75.50
77081;BME280;66009;53.150;18.160;2023-04-03T02:04:36;102401.35;;;-1.65;75.33
77081;BME280;66009;53.150;18.160;2023-04-03T02:07:03;102400.67;;;-1.68;75.55
77081;BME280;66009;53.150;18.160;2023-04-03T02:09:29;102400.19;;;-1.67;75.70
77081;BME280;66009;53.150;18.160;2023-04-03T02:11:56;102395.60;;;-1.67;75.94
77081;BME280;66009;53.150;18.160;2023-04-03T02:14:23;102401.67;;;-1.63;75.99
77081;BME280;66009;53.150;18.160;2023-04-03T02:16:50;102405.81;;;-1.59;76.17
77081;BME280;66009;53.150;18.160;2023-04-03T02:19:17;102408.89;;;-1.60;76.10
77081;BME280;66009;53.150;18.160;2023-04-03T02:21:43;102409.44;;;-1.62;75.92
77081;BME280;66009;53.150;18.160;2023-04-03T02:24:10;102407.17;;;-1.66;75.96
77081;BME280;66009;53.150;18.160;2023-04-03T02:26:36;102407.84;;;-1.69;75.96
77081;BME280;66009;53.150;18.160;2023-04-03T02:29:05;102410.74;;;-1.72;76.12
77081;BME280;66009;53.150;18.160;2023-04-03T02:31:32;102411.42;;;-1.74;76.23
77081;BME280;66009;53.150;18.160;2023-04-03T02:33:59;102411.92;;;-1.77;76.40
77081;BME280;66009;53.150;18.160;2023-04-03T02:36:26;102413.88;;;-1.79;76.59
77081;BME280;66009;53.150;18.160;2023-04-03T02:38:56;102412.86;;;-1.81;76.49
77081;BME280;66009;53.150;18.160;2023-04-03T02:41:22;102412.30;;;-1.85;76.69
77081;BME280;66009;53.150;18.160;2023-04-03T02:43:50;102409.39;;;-1.87;76.55
77081;BME280;66009;53.150;18.160;2023-04-03T02:46:17;102415.02;;;-1.83;76.13
77081;BME280;66009;53.150;18.160;2023-04-03T02:48:43;102417.60;;;-1.83;76.48
77081;BME280;66009;53.150;18.160;2023-04-03T02:51:10;102416.92;;;-1.83;76.63
77081;BME280;66009;53.150;18.160;2023-04-03T02:53:36;102419.25;;;-1.81;76.62
77081;BME280;66009;53.150;18.160;2023-04-03T02:56:08;102414.73;;;-1.79;76.53
77081;BME280;66009;53.150;18.160;2023-04-03T02:58:35;102420.29;;;-1.73;76.56
77081;BME280;66009;53.150;18.160;2023-04-03T03:01:02;102423.09;;;-1.70;76.50
77081;BME280;66009;53.150;18.160;2023-04-03T03:03:29;102422.20;;;-1.70;76.49
77081;BME280;66009;53.150;18.160;2023-04-03T03:06:26;102425.17;;;-1.70;76.70
77081;BME280;66009;53.150;18.160;2023-04-03T03:08:53;102426.85;;;-1.70;76.73
77081;BME280;66009;53.150;18.160;2023-04-03T03:11:20;102431.21;;;-1.72;76.69
77081;BME280;66009;53.150;18.160;2023-04-03T03:13:48;102427.33;;;-1.76;76.52
77081;BME280;66009;53.150;18.160;2023-04-03T03:16:15;102434.11;;;-1.80;76.67
77081;BME280;66009;53.150;18.160;2023-04-03T03:18:41;102436.62;;;-1.84;76.81
77081;BME280;66009;53.150;18.160;2023-04-03T03:21:09;102436.23;;;-1.87;76.96
77081;BME280;66009;53.150;18.160;2023-04-03T03:23:36;102437.41;;;-1.90;77.12
77081;BME280;66009;53.150;18.160;2023-04-03T03:26:05;102441.31;;;-1.83;77.40
77081;BME280;66009;53.150;18.160;2023-04-03T03:28:35;102437.13;;;-1.79;77.21
77081;BME280;66009;53.150;18.160;2023-04-03T03:31:03;102439.64;;;-1.77;77.05
77081;BME280;66009;53.150;18.160;2023-04-03T03:33:31;102441.52;;;-1.77;76.60
77081;BME280;66009;53.150;18.160;2023-04-03T03:35:58;102444.41;;;-1.78;76.79
77081;BME280;66009;53.150;18.160;2023-04-03T03:38:24;102447.29;;;-1.76;76.78
77081;BME280;66009;53.150;18.160;2023-04-03T03:40:51;102447.25;;;-1.77;76.93
77081;BME280;66009;53.150;18.160;2023-04-03T03:43:19;102451.34;;;-1.77;76.89
77081;BME280;66009;53.150;18.160;2023-04-03T03:45:51;102455.40;;;-1.79;77.10
77081;BME280;66009;53.150;18.160;2023-04-03T03:48:19;102458.94;;;-1.80;76.96
77081;BME280;66009;53.150;18.160;2023-04-03T03:50:47;102459.21;;;-1.81;77.40
77081;BME280;66009;53.150;18.160;2023-04-03T03:53:14;102460.52;;;-1.82;76.88
77081;BME280;66009;53.150;18.160;2023-04-03T03:55:41;102465.55;;;-1.84;77.04
77081;BME280;66009;53.150;18.160;2023-04-03T03:58:08;102466.67;;;-1.85;76.91
77081;BME280;66009;53.150;18.160;2023-04-03T04:00:36;102466.77;;;-1.89;76.78
77081;BME280;66009;53.150;18.160;2023-04-03T04:03:03;102469.14;;;-1.92;76.87
77081;BME280;66009;53.150;18.160;2023-04-03T04:05:30;102471.11;;;-1.88;76.70
77081;BME280;66009;53.150;18.160;2023-04-03T04:07:58;102473.36;;;-1.88;76.65
77081;BME280;66009;53.150;18.160;2023-04-03T04:10:25;102471.71;;;-1.89;76.52
77081;BME280;66009;53.150;18.160;2023-04-03T04:12:52;102475.23;;;-1.91;76.55
77081;BME280;66009;53.150;18.160;2023-04-03T04:15:20;102472.41;;;-1.92;76.46
77081;BME280;66009;53.150;18.160;2023-04-03T04:17:48;102475.53;;;-1.92;76.66
77081;BME280;66009;53.150;18.160;2023-04-03T04:20:15;102476.63;;;-1.91;76.72
77081;BME280;66009;53.150;18.160;2023-04-03T04:22:42;102477.27;;;-1.92;76.67
77081;BME280;66009;53.150;18.160;2023-04-03T04:25:09;102479.11;;;-1.93;76.50
77081;BME280;66009;53.150;18.160;2023-04-03T04:27:37;102477.60;;;-1.92;76.89
77081;BME280;66009;53.150;18.160;2023-04-03T04:30:05;102482.47;;;-1.91;77.04
77081;BME280;66009;53.150;18.160;2023-04-03T04:32:33;102481.23;;;-1.92;76.92
77081;BME280;66009;53.150;18.160;2023-04-03T04:35:00;102485.66;;;-1.93;76.98
77081;BME280;66009;53.150;18.160;2023-04-03T04:37:28;102484.89;;;-1.91;77.09
77081;BME280;66009;53.150;18.160;2023-04-03T04:39:54;102486.17;;;-1.90;76.97
77081;BME280;66009;53.150;18.160;2023-04-03T04:42:21;102488.81;;;-1.89;76.91
77081;BME280;66009;53.150;18.160;2023-04-03T04:44:48;102489.91;;;-1.88;76.90
77081;BME280;66009;53.150;18.160;2023-04-03T04:47:16;102490.92;;;-1.72;77.09
77081;BME280;66009;53.150;18.160;2023-04-03T04:49:43;102495.05;;;-1.56;76.52
77081;BME280;66009;53.150;18.160;2023-04-03T04:52:10;102500.14;;;-1.49;76.37
77081;BME280;66009;53.150;18.160;2023-04-03T04:54:39;102501.73;;;-1.45;76.46
77081;BME280;66009;53.150;18.160;2023-04-03T04:57:06;102504.41;;;-1.41;76.41
77081;BME280;66009;53.150;18.160;2023-04-03T04:59:33;102505.61;;;-1.33;76.13
77081;BME280;66009;53.150;18.160;2023-04-03T05:02:00;102508.58;;;-1.26;75.93
77081;BME280;66009;53.150;18.160;2023-04-03T05:04:27;102512.13;;;-1.19;76.09
77081;BME280;66009;53.150;18.160;2023-04-03T05:06:58;102509.15;;;-1.12;76.06
77081;BME280;66009;53.150;18.160;2023-04-03T05:09:27;102512.42;;;-0.86;75.85
77081;BME280;66009;53.150;18.160;2023-04-03T05:11:54;102514.04;;;-0.65;75.63
77081;BME280;66009;53.150;18.160;2023-04-03T05:14:22;102513.67;;;-0.57;75.16
77081;BME280;66009;53.150;18.160;2023-04-03T05:16:50;102511.41;;;-0.31;75.09
77081;BME280;66009;53.150;18.160;2023-04-03T05:19:21;102513.96;;;-0.02;74.46
77081;BME280;66009;53.150;18.160;2023-04-03T05:21:48;102511.52;;;0.10;74.17
77081;BME280;66009;53.150;18.160;2023-04-03T05:24:16;102512.43;;;0.11;74.00
77081;BME280;66009;53.150;18.160;2023-04-03T05:26:43;102511.89;;;0.17;73.98
77081;BME280;66009;53.150;18.160;2023-04-03T05:29:10;102510.84;;;0.44;73.95
77081;BME280;66009;53.150;18.160;2023-04-03T05:31:37;102514.95;;;0.82;73.42
77081;BME280;66009;53.150;18.160;2023-04-03T05:34:03;102515.14;;;1.18;72.87
77081;BME280;66009;53.150;18.160;2023-04-03T05:36:31;102508.82;;;1.57;71.95
77081;BME280;66009;53.150;18.160;2023-04-03T05:39:00;102511.06;;;1.80;71.61
77081;BME280;66009;53.150;18.160;2023-04-03T05:41:27;102511.48;;;1.81;70.80
77081;BME280;66009;53.150;18.160;2023-04-03T05:43:54;102510.05;;;1.84;70.44
77081;BME280;66009;53.150;18.160;2023-04-03T05:46:21;102512.61;;;1.91;70.60
77081;BME280;66009;53.150;18.160;2023-04-03T05:48:51;102514.23;;;2.28;70.45
77081;BME280;66009;53.150;18.160;2023-04-03T05:51:23;102514.46;;;2.69;70.20
77081;BME280;66009;53.150;18.160;2023-04-03T05:53:58;102512.27;;;3.21;69.02
77081;BME280;66009;53.150;18.160;2023-04-03T05:56:27;102508.71;;;3.59;67.52
77081;BME280;66009;53.150;18.160;2023-04-03T05:58:54;102511.31;;;3.63;67.31
77081;BME280;66009;53.150;18.160;2023-04-03T06:01:21;102514.88;;;3.82;67.25
77081;BME280;66009;53.150;18.160;2023-04-03T06:03:48;102515.35;;;4.15;65.88
77081;BME280;66009;53.150;18.160;2023-04-03T06:06:15;102519.03;;;4.63;65.24
77081;BME280;66009;53.150;18.160;2023-04-03T06:08:42;102517.72;;;4.98;63.94
77081;BME280;66009;53.150;18.160;2023-04-03T06:11:10;102514.98;;;5.53;63.44
77081;BME280;66009;53.150;18.160;2023-04-03T06:13:36;102516.96;;;6.06;62.81
77081;BME280;66009;53.150;18.160;2023-04-03T06:16:04;102517.00;;;6.39;61.72
77081;BME280;66009;53.150;18.160;2023-04-03T06:18:31;102521.68;;;6.33;60.12
77081;BME280;66009;53.150;18.160;2023-04-03T06:20:58;102520.30;;;6.33;60.20
77081;BME280;66009;53.150;18.160;2023-04-03T06:23:25;102522.64;;;6.53;59.99
77081;BME280;66009;53.150;18.160;2023-04-03T06:25:52;102527.23;;;6.83;60.01
77081;BME280;66009;53.150;18.160;2023-04-03T06:28:19;102524.45;;;7.14;58.29
77081;BME280;66009;53.150;18.160;2023-04-03T06:30:46;102522.32;;;7.64;56.23
77081;BME280;66009;53.150;18.160;2023-04-03T06:33:12;102525.44;;;8.40;54.83
77081;BME280;66009;53.150;18.160;2023-04-03T06:35:39;102525.36;;;9.45;53.89
77081;BME280;66009;53.150;18.160;2023-04-03T06:38:05;102523.26;;;10.72;52.34
77081;BME280;66009;53.150;18.160;2023-04-03T06:40:35;102522.23;;;11.61;50.49
77081;BME280;66009;53.150;18.160;2023-04-03T06:43:02;102522.64;;;12.61;50.40
77081;BME280;66009;53.150;18.160;2023-04-03T06:45:29;102525.73;;;13.93;47.69
77081;BME280;66009;53.150;18.160;2023-04-03T06:47:56;102520.94;;;15.07;46.94
77081;BME280;66009;53.150;18.160;2023-04-03T06:50:22;102521.65;;;15.42;41.76
77081;BME280;66009;53.150;18.160;2023-04-03T06:52:49;102526.55;;;14.58;39.38
77081;BME280;66009;53.150;18.160;2023-04-03T06:55:16;102529.57;;;13.04;41.37
77081;BME280;66009;53.150;18.160;2023-04-03T06:57:42;102531.61;;;13.23;42.18
77081;BME280;66009;53.150;18.160;2023-04-03T07:00:11;102540.55;;;12.48;43.22
77081;BME280;66009;53.150;18.160;2023-04-03T07:02:38;102547.52;;;12.35;43.17
77081;BME280;66009;53.150;18.160;2023-04-03T07:05:05;102547.80;;;12.51;42.16
77081;BME280;66009;53.150;18.160;2023-04-03T07:07:32;102553.54;;;11.98;41.32
77081;BME280;66009;53.150;18.160;2023-04-03T07:10:00;102557.62;;;12.01;40.68
77081;BME280;66009;53.150;18.160;2023-04-03T07:12:27;102556.17;;;11.31;40.29
77081;BME280;66009;53.150;18.160;2023-04-03T07:14:53;102553.88;;;11.61;40.55
77081;BME280;66009;53.150;18.160;2023-04-03T07:17:20;102562.52;;;12.67;39.50
77081;BME280;66009;53.150;18.160;2023-04-03T07:19:47;102555.02;;;13.14;38.57
77081;BME280;66009;53.150;18.160;2023-04-03T07:22:13;102562.25;;;12.82;39.06
77081;BME280;66009;53.150;18.160;2023-04-03T07:24:40;102569.64;;;12.50;38.83
77081;BME280;66009;53.150;18.160;2023-04-03T07:27:07;102573.11;;;12.22;38.86
77081;BME280;66009;53.150;18.160;2023-04-03T07:29:35;102568.98;;;13.42;37.14
77081;BME280;66009;53.150;18.160;2023-04-03T07:32:02;102561.74;;;15.49;34.90
77081;BME280;66009;53.150;18.160;2023-04-03T07:34:29;102558.91;;;17.26;32.71
77081;BME280;66009;53.150;18.160;2023-04-03T07:36:57;102561.72;;;18.34;31.82
77081;BME280;66009;53.150;18.160;2023-04-03T07:39:24;102552.44;;;19.52;30.50
77081;BME280;66009;53.150;18.160;2023-04-03T07:41:51;102551.30;;;19.63;28.76
77081;BME280;66009;53.150;18.160;2023-04-03T07:44:17;102558.13;;;19.90;28.77
77081;BME280;66009;53.150;18.160;2023-04-03T07:46:44;102558.95;;;20.95;27.53
77081;BME280;66009;53.150;18.160;2023-04-03T07:49:11;102558.52;;;21.81;25.48
77081;BME280;66009;53.150;18.160;2023-04-03T07:51:38;102559.87;;;22.37;24.49
77081;BME280;66009;53.150;18.160;2023-04-03T07:54:06;102557.11;;;22.85;23.96
77081;BME280;66009;53.150;18.160;2023-04-03T07:56:32;102552.40;;;23.47;23.84
77081;BME280;66009;53.150;18.160;2023-04-03T07:58:59;102551.83;;;24.31;23.40
77081;BME280;66009;53.150;18.160;2023-04-03T08:01:26;102548.85;;;24.70;20.95
77081;BME280;66009;53.150;18.160;2023-04-03T08:03:52;102554.99;;;24.73;20.47
77081;BME280;66009;53.150;18.160;2023-04-03T08:06:19;102548.20;;;25.31;21.52
77081;BME280;66009;53.150;18.160;2023-04-03T08:08:46;102548.79;;;26.04;20.73
77081;BME280;66009;53.150;18.160;2023-04-03T08:11:13;102555.48;;;26.49;18.97
77081;BME280;66009;53.150;18.160;2023-04-03T08:13:40;102545.93;;;26.86;19.62
77081;BME280;66009;53.150;18.160;2023-04-03T08:16:13;102550.77;;;27.39;18.78
77081;BME280;66009;53.150;18.160;2023-04-03T08:18:42;102549.89;;;27.92;18.21
77081;BME280;66009;53.150;18.160;2023-04-03T08:21:10;102550.49;;;28.33;18.07
77081;BME280;66009;53.150;18.160;2023-04-03T08:23:40;102544.01;;;28.45;17.80
77081;BME280;66009;53.150;18.160;2023-04-03T08:26:09;102540.79;;;28.65;17.77
77081;BME280;66009;53.150;18.160;2023-04-03T08:28:37;102544.56;;;28.98;16.30
77081;BME280;66009;53.150;18.160;2023-04-03T08:31:05;102542.10;;;29.13;16.57
77081;BME280;66009;53.150;18.160;2023-04-03T08:33:33;102541.98;;;29.34;16.05
77081;BME280;66009;53.150;18.160;2023-04-03T08:36:03;102541.23;;;29.76;15.33
77081;BME280;66009;53.150;18.160;2023-04-03T08:38:31;102541.31;;;30.05;15.73
77081;BME280;66009;53.150;18.160;2023-04-03T08:41:29;102544.17;;;30.37;14.95
77081;BME280;66009;53.150;18.160;2023-04-03T08:47:25;102541.86;;;30.95;14.19
77081;BME280;66009;53.150;18.160;2023-04-03T08:50:04;102538.51;;;31.16;14.55
77081;BME280;66009;53.150;18.160;2023-04-03T08:55:24;102542.38;;;31.77;14.38
77081;BME280;66009;53.150;18.160;2023-04-03T08:58:19;102547.95;;;32.21;13.96
77081;BME280;66009;53.150;18.160;2023-04-03T09:01:02;102544.64;;;32.26;13.54
77081;BME280;66009;53.150;18.160;2023-04-03T09:03:32;102543.89;;;32.28;12.68
77081;BME280;66009;53.150;18.160;2023-04-03T09:08:44;102541.98;;;32.39;13.02
77081;BME280;66009;53.150;18.160;2023-04-03T09:11:25;102544.30;;;32.74;12.17
77081;BME280;66009;53.150;18.160;2023-04-03T09:16:48;102541.51;;;33.83;13.00
77081;BME280;66009;53.150;18.160;2023-04-03T09:19:28;102535.59;;;34.43;12.07
77081;BME280;66009;53.150;18.160;2023-04-03T09:22:21;102532.98;;;34.79;12.67
77081;BME280;66009;53.150;18.160;2023-04-03T09:24:48;102530.16;;;35.33;12.48
77081;BME280;66009;53.150;18.160;2023-04-03T09:27:15;102525.97;;;35.76;12.09
77081;BME280;66009;53.150;18.160;2023-04-03T09:29:43;102530.81;;;35.71;11.77
77081;BME280;66009;53.150;18.160;2023-04-03T09:32:27;102526.33;;;34.33;11.87
77081;BME280;66009;53.150;18.160;2023-04-03T09:34:58;102527.27;;;32.23;12.82
77081;BME280;66009;53.150;18.160;2023-04-03T09:40:11;102536.67;;;29.29;13.89
77081;BME280;66009;53.150;18.160;2023-04-03T09:42:54;102534.52;;;27.74;14.24
77081;BME280;66009;53.150;18.160;2023-04-03T09:45:34;102530.02;;;29.04;14.10
77081;BME280;66009;53.150;18.160;2023-04-03T09:48:15;102528.52;;;30.61;13.91
77081;BME280;66009;53.150;18.160;2023-04-03T09:51:01;102525.61;;;31.78;13.24
77081;BME280;66009;53.150;18.160;2023-04-03T09:53:33;102529.02;;;32.49;12.88
77081;BME280;66009;53.150;18.160;2023-04-03T09:56:00;102519.52;;;33.50;12.54
77081;BME280;66009;53.150;18.160;2023-04-03T09:58:39;102517.19;;;34.45;12.04
77081;BME280;66009;53.150;18.160;2023-04-03T10:06:55;102523.05;;;31.14;13.23
77081;BME280;66009;53.150;18.160;2023-04-03T10:09:22;102525.36;;;29.26;13.68
77081;BME280;66009;53.150;18.160;2023-04-03T10:12:11;102517.42;;;29.17;14.13
77081;BME280;66009;53.150;18.160;2023-04-03T10:14:53;102518.70;;;27.82;14.40
77081;BME280;66009;53.150;18.160;2023-04-03T10:17:32;102522.02;;;26.81;14.82
77081;BME280;66009;53.150;18.160;2023-04-03T10:27:09;102518.89;;;29.11;14.64
77081;BME280;66009;53.150;18.160;2023-04-03T10:29:36;102511.52;;;31.50;13.83
77081;BME280;66009;53.150;18.160;2023-04-03T10:32:39;102503.74;;;32.55;12.98
77081;BME280;66009;53.150;18.160;2023-04-03T10:38:20;102510.32;;;27.48;14.21
77081;BME280;66009;53.150;18.160;2023-04-03T10:46:22;102524.77;;;21.28;18.07
77081;BME280;66009;53.150;18.160;2023-04-03T10:55:00;102523.20;;;21.03;18.23
77081;BME280;66009;53.150;18.160;2023-04-03T10:57:29;102526.58;;;21.30;18.57
77081;BME280;66009;53.150;18.160;2023-04-03T10:59:57;102514.95;;;24.31;17.17
77081;BME280;66009;53.150;18.160;2023-04-03T11:02:36;102505.57;;;26.88;15.93
77081;BME280;66009;53.150;18.160;2023-04-03T11:07:52;102499.27;;;30.39;13.67
77081;BME280;66009;53.150;18.160;2023-04-03T11:10:38;102496.81;;;31.88;13.41
77081;BME280;66009;53.150;18.160;2023-04-03T11:13:21;102493.95;;;33.53;12.66
77081;BME280;66009;53.150;18.160;2023-04-03T11:15:51;102482.08;;;34.65;11.83
77081;BME280;66009;53.150;18.160;2023-04-03T11:18:32;102478.73;;;35.08;11.09
77081;BME280;66009;53.150;18.160;2023-04-03T11:21:12;102475.27;;;35.65;11.09
77081;BME280;66009;53.150;18.160;2023-04-03T11:23:43;102472.76;;;34.97;10.92
77081;BME280;66009;53.150;18.160;2023-04-03T11:26:14;102470.23;;;34.69;10.92
77081;BME280;66009;53.150;18.160;2023-04-03T11:28:42;102468.98;;;35.58;11.01
77081;BME280;66009;53.150;18.160;2023-04-03T11:31:18;102472.02;;;34.54;11.22
77081;BME280;66009;53.150;18.160;2023-04-03T11:34:05;102475.81;;;32.74;11.80
77081;BME280;66009;53.150;18.160;2023-04-03T11:36:49;102474.01;;;32.25;12.39
77081;BME280;66009;53.150;18.160;2023-04-03T11:39:22;102467.29;;;31.11;12.28
77081;BME280;66009;53.150;18.160;2023-04-03T11:41:50;102483.10;;;28.64;13.32
77081;BME280;66009;53.150;18.160;2023-04-03T11:44:35;102482.20;;;26.06;14.29
77081;BME280;66009;53.150;18.160;2023-04-03T11:47:10;102484.89;;;26.09;14.80
77081;BME280;66009;53.150;18.160;2023-04-03T11:49:58;102469.48;;;28.51;14.14
77081;BME280;66009;53.150;18.160;2023-04-03T12:03:29;102447.85;;;30.38;12.44
77081;BME280;66009;53.150;18.160;2023-04-03T12:08:47;102460.06;;;26.73;14.62
77081;BME280;66009;53.150;18.160;2023-04-03T12:11:32;102466.16;;;24.55;16.01
77081;BME280;66009;53.150;18.160;2023-04-03T12:16:42;102472.48;;;20.79;18.37
77081;BME280;66009;53.150;18.160;2023-04-03T12:29:38;102471.47;;;19.02;21.12
77081;BME280;66009;53.150;18.160;2023-04-03T12:35:34;102473.43;;;17.09;22.23
77081;BME280;66009;53.150;18.160;2023-04-03T12:43:31;102477.14;;;18.54;22.26
77081;BME280;66009;53.150;18.160;2023-04-03T12:48:38;102452.24;;;22.73;20.05
77081;BME280;66009;53.150;18.160;2023-04-03T12:51:18;102464.27;;;21.65;19.80
77081;BME280;66009;53.150;18.160;2023-04-03T12:53:46;102463.38;;;20.01;19.90
77081;BME280;66009;53.150;18.160;2023-04-03T12:56:20;102463.95;;;18.78;20.96
77081;BME280;66009;53.150;18.160;2023-04-03T12:58:50;102464.76;;;18.00;21.96
77081;BME280;66009;53.150;18.160;2023-04-03T13:01:21;102463.30;;;17.60;22.35
77081;BME280;66009;53.150;18.160;2023-04-03T13:03:50;102469.20;;;16.94;23.18
77081;BME280;66009;53.150;18.160;2023-04-03T13:06:38;102473.73;;;16.03;23.89
77081;BME280;66009;53.150;18.160;2023-04-03T13:09:14;102476.20;;;15.05;24.79
77081;BME280;66009;53.150;18.160;2023-04-03T13:11:45;102466.24;;;15.14;25.26
77081;BME280;66009;53.150;18.160;2023-04-03T13:16:56;102478.77;;;13.85;25.81
77081;BME280;66009;53.150;18.160;2023-04-03T13:19:25;102469.91;;;13.98;26.12
77081;BME280;66009;53.150;18.160;2023-04-03T13:22:02;102461.31;;;16.35;25.33
77081;BME280;66009;53.150;18.160;2023-04-03T13:24:34;102453.06;;;18.53;23.56
77081;BME280;66009;53.150;18.160;2023-04-03T13:27:02;102454.55;;;18.68;22.73
77081;BME280;66009;53.150;18.160;2023-04-03T13:29:33;102456.95;;;17.55;23.17
77081;BME280;66009;53.150;18.160;2023-04-03T13:32:02;102464.55;;;16.37;23.64
77081;BME280;66009;53.150;18.160;2023-04-03T13:34:36;102462.17;;;15.43;24.76
77081;BME280;66009;53.150;18.160;2023-04-03T13:37:04;102461.36;;;14.65;24.97
77081;BME280;66009;53.150;18.160;2023-04-03T13:39:32;102461.96;;;14.28;25.86
77081;BME280;66009;53.150;18.160;2023-04-03T13:42:02;102465.38;;;13.82;26.15
77081;BME280;66009;53.150;18.160;2023-04-03T13:44:41;102459.31;;;13.26;26.83
77081;BME280;66009;53.150;18.160;2023-04-03T13:49:58;102474.35;;;11.99;28.44
77081;BME280;66009;53.150;18.160;2023-04-03T13:52:53;102475.16;;;11.35;29.03
77081;BME280;66009;53.150;18.160;2023-04-03T13:56:18;102474.39;;;10.96;29.07
77081;BME280;66009;53.150;18.160;2023-04-03T13:58:37;102467.53;;;10.66;30.17
77081;BME280;66009;53.150;18.160;2023-04-03T14:01:17;102470.49;;;10.64;30.93
77081;BME280;66009;53.150;18.160;2023-04-03T14:04:00;102462.98;;;10.83;31.69
77081;BME280;66009;53.150;18.160;2023-04-03T14:06:27;102470.96;;;11.04;32.22
77081;BME280;66009;53.150;18.160;2023-04-03T14:08:55;102475.97;;;10.96;32.23
77081;BME280;66009;53.150;18.160;2023-04-03T14:11:26;102474.77;;;10.69;32.21
77081;BME280;66009;53.150;18.160;2023-04-03T14:13:55;102478.92;;;10.28;32.13
77081;BME280;66009;53.150;18.160;2023-04-03T14:16:27;102477.59;;;9.88;32.61
77081;BME280;66009;53.150;18.160;2023-04-03T14:18:55;102478.70;;;9.51;32.62
77081;BME280;66009;53.150;18.160;2023-04-03T14:21:22;102472.45;;;9.26;33.07
77081;BME280;66009;53.150;18.160;2023-04-03T14:23:49;102479.39;;;9.04;33.12
77081;BME280;66009;53.150;18.160;2023-04-03T14:26:21;102474.13;;;8.86;33.48
77081;BME280;66009;53.150;18.160;2023-04-03T14:28:51;102478.16;;;8.69;33.86
77081;BME280;66009;53.150;18.160;2023-04-03T14:31:19;102480.23;;;8.53;34.19